sensor_id;sensor_type;location;lat;lon;timestamp;P1;durP1;ratioP1;P2;durP2;ratioP2
23743;SDS011;12052;53.478;10.182;2022-10-16T00:00:38;12.63;;;6.10;;
23743;SDS011;12052;53.478;10.182;2022-10-16T00:03:05;14.25;;;5.68;;
23743;SDS011;12052;53.478;10.182;2022-10-16T00:05:31;11.00;;;5.90;;
23743;SDS011;12052;53.478;10.182;2022-10-16T00:07:57;14.55;;;5.90;;
23743;SDS011;12052;53.478;10.182;2022-10-16T00:10:23;10.00;;;5.93;;
23743;SDS011;12052;53.478;10.182;2022-10-16T00:12:49;13.00;;;6.78;;
23743;SDS011;12052;53.478;10.182;2022-10-16T00:15:14;10.23;;;6.22;;
23743;SDS011;12052;53.478;10.182;2022-10-16T00:17:40;10.25;;;6.15;;
23743;SDS011;12052;53.478;10.182;2022-10-16T00:20:06;11.07;;;5.72;;
23743;SDS011;12052;53.478;10.182;2022-10-16T00:22:32;10.20;;;6.10;;
23743;SDS011;12052;53.478;10.182;2022-10-16T00:24:58;12.77;;;6.45;;
23743;SDS011;12052;53.478;10.182;2022-10-16T00:27:23;10.80;;;6.22;;
23743;SDS011;12052;53.478;10.182;2022-10-16T00:29:52;17.42;;;5.82;;
23743;SDS011;12052;53.478;10.182;2022-10-16T00:32:18;12.93;;;6.30;;
23743;SDS011;12052;53.478;10.182;2022-10-16T00:34:44;12.32;;;6.55;;
23743;SDS011;12052;53.478;10.182;2022-10-16T00:37:10;9.15;;;5.80;;
23743;SDS011;12052;53.478;10.182;2022-10-16T00:39:36;11.07;;;5.95;;
23743;SDS011;12052;53.478;10.182;2022-10-16T00:42:02;9.18;;;5.97;;
23743;SDS011;12052;53.478;10.182;2022-10-16T00:44:41;11.68;;;6.15;;
23743;SDS011;12052;53.478;10.182;2022-10-16T00:47:26;7.63;;;5.20;;
23743;SDS011;12052;53.478;10.182;2022-10-16T00:50:04;10.45;;;5.35;;
23743;SDS011;12052;53.478;10.182;2022-10-16T00:52:47;8.75;;;5.30;;
23743;SDS011;12052;53.478;10.182;2022-10-16T00:55:14;9.93;;;5.22;;
23743;SDS011;12052;53.478;10.182;2022-10-16T00:57:41;8.02;;;4.72;;
23743;SDS011;12052;53.478;10.182;2022-10-16T01:00:08;7.95;;;5.30;;
23743;SDS011;12052;53.478;10.182;2022-10-16T01:02:35;7.80;;;4.82;;
23743;SDS011;12052;53.478;10.182;2022-10-16T01:05:01;8.35;;;4.90;;
23743;SDS011;12052;53.478;10.182;2022-10-16T01:13:31;11.18;;;4.68;;
23743;SDS011;12052;53.478;10.182;2022-10-16T01:16:06;7.93;;;4.50;;
23743;SDS011;12052;53.478;10.182;2022-10-16T01:26:13;5.72;;;3.60;;
23743;SDS011;12052;53.478;10.182;2022-10-16T01:28:48;7.55;;;4.22;;
23743;SDS011;12052;53.478;10.182;2022-10-16T01:31:18;5.45;;;3.83;;
23743;SDS011;12052;53.478;10.182;2022-10-16T01:33:47;7.13;;;3.92;;
23743;SDS011;12052;53.478;10.182;2022-10-16T01:36:28;7.95;;;3.55;;
23743;SDS011;12052;53.478;10.182;2022-10-16T01:39:01;6.60;;;3.42;;
23743;SDS011;12052;53.478;10.182;2022-10-16T01:41:30;6.57;;;3.28;;
23743;SDS011;12052;53.478;10.182;2022-10-16T01:44:02;4.80;;;2.70;;
23743;SDS011;12052;53.478;10.182;2022-10-16T01:46:35;12.93;;;2.97;;
23743;SDS011;12052;53.478;10.182;2022-10-16T01:49:03;5.43;;;3.00;;
23743;SDS011;12052;53.478;10.182;2022-10-16T01:51:31;8.85;;;2.95;;
23743;SDS011;12052;53.478;10.182;2022-10-16T01:54:00;4.40;;;2.30;;
23743;SDS011;12052;53.478;10.182;2022-10-16T01:56:26;6.30;;;2.47;;
23743;SDS011;12052;53.478;10.182;2022-10-16T01:58:58;6.72;;;2.47;;
23743;SDS011;12052;53.478;10.182;2022-10-16T02:04:07;8.27;;;2.38;;
23743;SDS011;12052;53.478;10.182;2022-10-16T02:06:40;7.00;;;2.72;;
23743;SDS011;12052;53.478;10.182;2022-10-16T02:09:06;6.32;;;2.25;;
23743;SDS011;12052;53.478;10.182;2022-10-16T02:11:31;5.13;;;2.13;;
23743;SDS011;12052;53.478;10.182;2022-10-16T02:13:58;8.30;;;2.17;;
23743;SDS011;12052;53.478;10.182;2022-10-16T02:16:32;5.90;;;2.13;;
23743;SDS011;12052;53.478;10.182;2022-10-16T02:19:00;6.45;;;2.70;;
23743;SDS011;12052;53.478;10.182;2022-10-16T02:21:26;4.75;;;2.00;;
23743;SDS011;12052;53.478;10.182;2022-10-16T02:24:03;3.70;;;2.05;;
23743;SDS011;12052;53.478;10.182;2022-10-16T02:26:52;3.53;;;2.10;;
23743;SDS011;12052;53.478;10.182;2022-10-16T02:29:22;7.75;;;2.00;;
23743;SDS011;12052;53.478;10.182;2022-10-16T02:31:51;3.03;;;2.10;;
23743;SDS011;12052;53.478;10.182;2022-10-16T02:34:20;3.55;;;1.88;;
23743;SDS011;12052;53.478;10.182;2022-10-16T02:36:47;9.93;;;2.38;;
23743;SDS011;12052;53.478;10.182;2022-10-16T02:39:15;6.20;;;1.65;;
23743;SDS011;12052;53.478;10.182;2022-10-16T02:41:41;8.98;;;2.03;;
23743;SDS011;12052;53.478;10.182;2022-10-16T02:44:07;5.55;;;2.13;;
23743;SDS011;12052;53.478;10.182;2022-10-16T02:46:33;3.10;;;1.83;;
23743;SDS011;12052;53.478;10.182;2022-10-16T02:48:58;4.00;;;2.00;;
23743;SDS011;12052;53.478;10.182;2022-10-16T02:51:24;4.32;;;1.88;;
23743;SDS011;12052;53.478;10.182;2022-10-16T02:53:50;5.35;;;1.95;;
23743;SDS011;12052;53.478;10.182;2022-10-16T02:56:15;2.83;;;1.85;;
23743;SDS011;12052;53.478;10.182;2022-10-16T02:58:41;2.80;;;1.92;;
23743;SDS011;12052;53.478;10.182;2022-10-16T03:01:06;7.15;;;2.00;;
23743;SDS011;12052;53.478;10.182;2022-10-16T03:03:32;3.22;;;1.70;;
23743;SDS011;12052;53.478;10.182;2022-10-16T03:05:58;5.10;;;1.77;;
23743;SDS011;12052;53.478;10.182;2022-10-16T03:08:23;2.70;;;1.80;;
23743;SDS011;12052;53.478;10.182;2022-10-16T03:10:50;3.35;;;1.92;;
23743;SDS011;12052;53.478;10.182;2022-10-16T03:13:16;3.25;;;1.50;;
23743;SDS011;12052;53.478;10.182;2022-10-16T03:15:43;3.65;;;1.77;;
23743;SDS011;12052;53.478;10.182;2022-10-16T03:18:08;2.40;;;1.65;;
23743;SDS011;12052;53.478;10.182;2022-10-16T03:20:34;2.45;;;1.67;;
23743;SDS011;12052;53.478;10.182;2022-10-16T03:23:00;4.25;;;1.65;;
23743;SDS011;12052;53.478;10.182;2022-10-16T03:25:25;9.10;;;2.15;;
23743;SDS011;12052;53.478;10.182;2022-10-16T03:27:51;4.20;;;1.95;;
23743;SDS011;12052;53.478;10.182;2022-10-16T03:30:16;2.25;;;1.52;;
23743;SDS011;12052;53.478;10.182;2022-10-16T03:32:43;5.95;;;1.75;;
23743;SDS011;12052;53.478;10.182;2022-10-16T03:35:09;5.18;;;2.00;;
23743;SDS011;12052;53.478;10.182;2022-10-16T03:37:34;2.88;;;1.52;;
23743;SDS011;12052;53.478;10.182;2022-10-16T03:40:00;3.20;;;1.70;;
23743;SDS011;12052;53.478;10.182;2022-10-16T03:42:26;5.68;;;1.80;;
23743;SDS011;12052;53.478;10.182;2022-10-16T03:44:51;2.60;;;1.90;;
23743;SDS011;12052;53.478;10.182;2022-10-16T03:47:17;5.72;;;1.67;;
23743;SDS011;12052;53.478;10.182;2022-10-16T03:49:46;8.70;;;1.83;;
23743;SDS011;12052;53.478;10.182;2022-10-16T03:52:12;5.35;;;1.20;;
23743;SDS011;12052;53.478;10.182;2022-10-16T03:54:39;2.65;;;1.30;;
23743;SDS011;12052;53.478;10.182;2022-10-16T03:57:04;4.93;;;1.58;;
23743;SDS011;12052;53.478;10.182;2022-10-16T03:59:30;4.45;;;1.90;;
23743;SDS011;12052;53.478;10.182;2022-10-16T04:01:56;2.22;;;1.55;;
23743;SDS011;12052;53.478;10.182;2022-10-16T04:04:21;5.28;;;1.42;;
23743;SDS011;12052;53.478;10.182;2022-10-16T04:06:47;7.07;;;2.05;;
23743;SDS011;12052;53.478;10.182;2022-10-16T04:09:12;2.45;;;1.30;;
23743;SDS011;12052;53.478;10.182;2022-10-16T04:11:38;3.25;;;1.42;;
23743;SDS011;12052;53.478;10.182;2022-10-16T04:14:05;6.18;;;1.45;;
23743;SDS011;12052;53.478;10.182;2022-10-16T04:16:31;5.28;;;1.50;;
23743;SDS011;12052;53.478;10.182;2022-10-16T04:18:56;3.20;;;1.23;;
23743;SDS011;12052;53.478;10.182;2022-10-16T04:21:22;6.22;;;1.55;;
23743;SDS011;12052;53.478;10.182;2022-10-16T04:23:47;4.97;;;1.42;;
23743;SDS011;12052;53.478;10.182;2022-10-16T04:26:14;3.72;;;1.20;;
23743;SDS011;12052;53.478;10.182;2022-10-16T04:28:39;5.05;;;1.45;;
23743;SDS011;12052;53.478;10.182;2022-10-16T04:31:05;3.22;;;1.50;;
23743;SDS011;12052;53.478;10.182;2022-10-16T04:33:31;2.83;;;1.80;;
23743;SDS011;12052;53.478;10.182;2022-10-16T04:35:58;1.95;;;1.45;;
23743;SDS011;12052;53.478;10.182;2022-10-16T04:38:25;3.22;;;1.48;;
23743;SDS011;12052;53.478;10.182;2022-10-16T04:40:50;7.45;;;1.67;;
23743;SDS011;12052;53.478;10.182;2022-10-16T04:43:16;2.55;;;1.40;;
23743;SDS011;12052;53.478;10.182;2022-10-16T04:45:42;4.40;;;1.60;;
23743;SDS011;12052;53.478;10.182;2022-10-16T04:48:07;5.53;;;1.73;;
23743;SDS011;12052;53.478;10.182;2022-10-16T04:50:33;5.68;;;1.50;;
23743;SDS011;12052;53.478;10.182;2022-10-16T04:52:58;1.67;;;1.20;;
23743;SDS011;12052;53.478;10.182;2022-10-16T04:55:24;2.15;;;1.20;;
23743;SDS011;12052;53.478;10.182;2022-10-16T04:57:50;3.88;;;1.40;;
23743;SDS011;12052;53.478;10.182;2022-10-16T05:00:15;7.95;;;1.63;;
23743;SDS011;12052;53.478;10.182;2022-10-16T05:02:41;4.13;;;1.50;;
23743;SDS011;12052;53.478;10.182;2022-10-16T05:05:07;2.35;;;1.38;;
23743;SDS011;12052;53.478;10.182;2022-10-16T05:07:32;2.60;;;1.65;;
23743;SDS011;12052;53.478;10.182;2022-10-16T05:09:58;3.15;;;1.75;;
23743;SDS011;12052;53.478;10.182;2022-10-16T05:12:23;3.20;;;1.50;;
23743;SDS011;12052;53.478;10.182;2022-10-16T05:14:49;5.45;;;1.90;;
23743;SDS011;12052;53.478;10.182;2022-10-16T05:17:14;4.53;;;1.50;;
23743;SDS011;12052;53.478;10.182;2022-10-16T05:19:40;6.45;;;1.80;;
23743;SDS011;12052;53.478;10.182;2022-10-16T05:22:06;2.85;;;1.90;;
23743;SDS011;12052;53.478;10.182;2022-10-16T05:24:31;5.70;;;1.92;;
23743;SDS011;12052;53.478;10.182;2022-10-16T05:26:57;4.80;;;1.50;;
23743;SDS011;12052;53.478;10.182;2022-10-16T05:29:22;5.13;;;1.63;;
23743;SDS011;12052;53.478;10.182;2022-10-16T05:31:51;10.27;;;1.88;;
23743;SDS011;12052;53.478;10.182;2022-10-16T05:34:18;2.40;;;1.55;;
23743;SDS011;12052;53.478;10.182;2022-10-16T05:36:44;6.43;;;2.13;;
23743;SDS011;12052;53.478;10.182;2022-10-16T05:39:10;3.45;;;1.77;;
23743;SDS011;12052;53.478;10.182;2022-10-16T05:41:35;5.80;;;1.65;;
23743;SDS011;12052;53.478;10.182;2022-10-16T05:44:03;3.97;;;1.73;;
23743;SDS011;12052;53.478;10.182;2022-10-16T05:46:30;3.80;;;1.55;;
23743;SDS011;12052;53.478;10.182;2022-10-16T05:48:56;2.97;;;1.50;;
23743;SDS011;12052;53.478;10.182;2022-10-16T05:51:21;6.55;;;1.65;;
23743;SDS011;12052;53.478;10.182;2022-10-16T05:53:47;3.95;;;1.80;;
23743;SDS011;12052;53.478;10.182;2022-10-16T05:56:12;4.25;;;1.42;;
23743;SDS011;12052;53.478;10.182;2022-10-16T05:58:38;7.28;;;1.70;;
23743;SDS011;12052;53.478;10.182;2022-10-16T06:01:23;6.85;;;1.70;;
23743;SDS011;12052;53.478;10.182;2022-10-16T06:03:50;5.80;;;2.00;;
23743;SDS011;12052;53.478;10.182;2022-10-16T06:06:21;5.53;;;1.55;;
23743;SDS011;12052;53.478;10.182;2022-10-16T06:08:48;8.75;;;1.92;;
23743;SDS011;12052;53.478;10.182;2022-10-16T06:11:15;7.85;;;2.00;;
23743;SDS011;12052;53.478;10.182;2022-10-16T06:13:42;5.22;;;1.65;;
23743;SDS011;12052;53.478;10.182;2022-10-16T06:16:10;9.38;;;1.73;;
23743;SDS011;12052;53.478;10.182;2022-10-16T06:18:37;6.60;;;1.75;;
23743;SDS011;12052;53.478;10.182;2022-10-16T06:21:10;6.82;;;2.00;;
23743;SDS011;12052;53.478;10.182;2022-10-16T06:23:36;7.72;;;2.00;;
23743;SDS011;12052;53.478;10.182;2022-10-16T06:26:06;5.72;;;1.77;;
23743;SDS011;12052;53.478;10.182;2022-10-16T06:28:36;9.70;;;1.60;;
23743;SDS011;12052;53.478;10.182;2022-10-16T06:31:03;4.55;;;1.88;;
23743;SDS011;12052;53.478;10.182;2022-10-16T06:33:30;8.32;;;2.55;;
23743;SDS011;12052;53.478;10.182;2022-10-16T06:36:06;4.38;;;2.42;;
23743;SDS011;12052;53.478;10.182;2022-10-16T06:38:37;5.57;;;2.03;;
23743;SDS011;12052;53.478;10.182;2022-10-16T06:41:03;7.97;;;2.13;;
23743;SDS011;12052;53.478;10.182;2022-10-16T06:43:29;6.63;;;2.58;;
23743;SDS011;12052;53.478;10.182;2022-10-16T06:46:00;2.60;;;1.92;;
23743;SDS011;12052;53.478;10.182;2022-10-16T06:48:27;4.78;;;1.92;;
23743;SDS011;12052;53.478;10.182;2022-10-16T06:51:00;3.85;;;2.33;;
23743;SDS011;12052;53.478;10.182;2022-10-16T06:53:28;3.85;;;2.17;;
23743;SDS011;12052;53.478;10.182;2022-10-16T06:55:55;10.13;;;2.28;;
23743;SDS011;12052;53.478;10.182;2022-10-16T06:58:21;6.00;;;2.58;;
23743;SDS011;12052;53.478;10.182;2022-10-16T07:00:47;6.97;;;2.45;;
23743;SDS011;12052;53.478;10.182;2022-10-16T07:03:13;4.30;;;2.47;;
23743;SDS011;12052;53.478;10.182;2022-10-16T07:05:42;7.40;;;2.67;;
23743;SDS011;12052;53.478;10.182;2022-10-16T07:08:08;7.43;;;2.60;;
23743;SDS011;12052;53.478;10.182;2022-10-16T07:10:34;5.53;;;2.70;;
23743;SDS011;12052;53.478;10.182;2022-10-16T07:13:00;8.95;;;2.88;;
23743;SDS011;12052;53.478;10.182;2022-10-16T07:15:26;3.35;;;2.35;;
23743;SDS011;12052;53.478;10.182;2022-10-16T07:17:52;7.50;;;2.80;;
23743;SDS011;12052;53.478;10.182;2022-10-16T07:20:18;7.88;;;2.65;;
23743;SDS011;12052;53.478;10.182;2022-10-16T07:22:44;8.30;;;2.90;;
23743;SDS011;12052;53.478;10.182;2022-10-16T07:25:09;4.57;;;2.35;;
23743;SDS011;12052;53.478;10.182;2022-10-16T07:27:36;6.65;;;2.38;;
23743;SDS011;12052;53.478;10.182;2022-10-16T07:30:02;9.40;;;2.42;;
23743;SDS011;12052;53.478;10.182;2022-10-16T07:32:28;8.35;;;2.75;;
23743;SDS011;12052;53.478;10.182;2022-10-16T07:34:54;3.35;;;2.05;;
23743;SDS011;12052;53.478;10.182;2022-10-16T07:37:20;3.97;;;2.40;;
23743;SDS011;12052;53.478;10.182;2022-10-16T07:39:46;7.38;;;2.55;;
23743;SDS011;12052;53.478;10.182;2022-10-16T07:42:12;4.75;;;2.25;;
23743;SDS011;12052;53.478;10.182;2022-10-16T07:44:37;13.00;;;2.65;;
23743;SDS011;12052;53.478;10.182;2022-10-16T07:47:03;6.05;;;2.25;;
23743;SDS011;12052;53.478;10.182;2022-10-16T07:49:28;4.13;;;2.13;;
23743;SDS011;12052;53.478;10.182;2022-10-16T07:51:54;4.47;;;2.03;;
23743;SDS011;12052;53.478;10.182;2022-10-16T07:54:19;7.45;;;2.33;;
23743;SDS011;12052;53.478;10.182;2022-10-16T07:56:45;6.22;;;2.35;;
23743;SDS011;12052;53.478;10.182;2022-10-16T07:59:10;5.82;;;2.08;;
23743;SDS011;12052;53.478;10.182;2022-10-16T08:01:36;4.07;;;2.08;;
23743;SDS011;12052;53.478;10.182;2022-10-16T08:04:02;2.95;;;1.63;;
23743;SDS011;12052;53.478;10.182;2022-10-16T08:06:28;5.53;;;2.05;;
23743;SDS011;12052;53.478;10.182;2022-10-16T08:08:53;3.47;;;2.08;;
23743;SDS011;12052;53.478;10.182;2022-10-16T08:11:20;2.63;;;1.80;;
23743;SDS011;12052;53.478;10.182;2022-10-16T08:13:46;4.15;;;1.60;;
23743;SDS011;12052;53.478;10.182;2022-10-16T08:16:11;6.05;;;1.90;;
23743;SDS011;12052;53.478;10.182;2022-10-16T08:18:37;3.08;;;2.05;;
23743;SDS011;12052;53.478;10.182;2022-10-16T08:21:04;13.07;;;2.25;;
23743;SDS011;12052;53.478;10.182;2022-10-16T08:23:31;4.72;;;1.80;;
23743;SDS011;12052;53.478;10.182;2022-10-16T08:26:01;3.60;;;1.58;;
23743;SDS011;12052;53.478;10.182;2022-10-16T08:28:29;8.10;;;1.80;;
23743;SDS011;12052;53.478;10.182;2022-10-16T08:30:54;6.15;;;2.00;;
23743;SDS011;12052;53.478;10.182;2022-10-16T08:33:21;4.50;;;1.60;;
23743;SDS011;12052;53.478;10.182;2022-10-16T08:35:51;4.80;;;1.92;;
23743;SDS011;12052;53.478;10.182;2022-10-16T08:38:18;3.65;;;1.63;;
23743;SDS011;12052;53.478;10.182;2022-10-16T08:40:44;10.20;;;2.35;;
23743;SDS011;12052;53.478;10.182;2022-10-16T08:43:31;2.65;;;1.45;;
23743;SDS011;12052;53.478;10.182;2022-10-16T08:48:47;2.67;;;1.45;;
23743;SDS011;12052;53.478;10.182;2022-10-16T08:51:18;2.90;;;1.73;;
23743;SDS011;12052;53.478;10.182;2022-10-16T08:54:06;4.30;;;1.50;;
23743;SDS011;12052;53.478;10.182;2022-10-16T08:56:46;2.88;;;1.50;;
23743;SDS011;12052;53.478;10.182;2022-10-16T08:59:19;3.95;;;1.20;;
23743;SDS011;12052;53.478;10.182;2022-10-16T09:01:45;4.50;;;1.63;;
23743;SDS011;12052;53.478;10.182;2022-10-16T09:07:41;2.92;;;1.20;;
23743;SDS011;12052;53.478;10.182;2022-10-16T09:10:38;4.78;;;1.60;;
23743;SDS011;12052;53.478;10.182;2022-10-16T09:15:40;2.92;;;1.50;;
23743;SDS011;12052;53.478;10.182;2022-10-16T09:20:53;1.50;;;1.23;;
23743;SDS011;12052;53.478;10.182;2022-10-16T09:23:34;3.92;;;1.30;;
23743;SDS011;12052;53.478;10.182;2022-10-16T09:26:01;4.72;;;1.23;;
23743;SDS011;12052;53.478;10.182;2022-10-16T09:28:27;3.50;;;1.50;;
23743;SDS011;12052;53.478;10.182;2022-10-16T09:30:53;2.63;;;1.40;;
23743;SDS011;12052;53.478;10.182;2022-10-16T09:33:20;6.15;;;1.38;;
23743;SDS011;12052;53.478;10.182;2022-10-16T09:35:50;5.22;;;1.30;;
23743;SDS011;12052;53.478;10.182;2022-10-16T09:38:28;6.78;;;1.50;;
23743;SDS011;12052;53.478;10.182;2022-10-16T09:40:56;4.65;;;1.27;;
23743;SDS011;12052;53.478;10.182;2022-10-16T09:46:08;5.47;;;1.30;;
23743;SDS011;12052;53.478;10.182;2022-10-16T09:48:50;1.45;;;0.95;;
23743;SDS011;12052;53.478;10.182;2022-10-16T09:51:21;2.65;;;1.00;;
23743;SDS011;12052;53.478;10.182;2022-10-16T09:54:01;1.85;;;1.15;;
23743;SDS011;12052;53.478;10.182;2022-10-16T09:56:34;2.40;;;0.88;;
23743;SDS011;12052;53.478;10.182;2022-10-16T10:01:41;1.60;;;0.90;;
23743;SDS011;12052;53.478;10.182;2022-10-16T10:04:12;3.38;;;0.88;;
23743;SDS011;12052;53.478;10.182;2022-10-16T10:06:42;3.08;;;1.00;;
23743;SDS011;12052;53.478;10.182;2022-10-16T10:12:04;3.53;;;1.08;;
23743;SDS011;12052;53.478;10.182;2022-10-16T10:14:37;2.38;;;1.08;;
23743;SDS011;12052;53.478;10.182;2022-10-16T10:19:37;1.80;;;1.13;;
23743;SDS011;12052;53.478;10.182;2022-10-16T10:22:17;3.03;;;1.00;;
23743;SDS011;12052;53.478;10.182;2022-10-16T10:39:17;2.78;;;0.82;;
23743;SDS011;12052;53.478;10.182;2022-10-16T10:44:35;2.03;;;0.70;;
23743;SDS011;12052;53.478;10.182;2022-10-16T10:57:39;2.35;;;0.75;;
23743;SDS011;12052;53.478;10.182;2022-10-16T11:00:31;1.83;;;0.60;;
23743;SDS011;12052;53.478;10.182;2022-10-16T11:06:04;1.20;;;0.60;;
23743;SDS011;12052;53.478;10.182;2022-10-16T11:08:45;1.80;;;0.90;;
23743;SDS011;12052;53.478;10.182;2022-10-16T11:11:18;2.42;;;0.70;;
23743;SDS011;12052;53.478;10.182;2022-10-16T11:13:55;3.63;;;0.90;;
23743;SDS011;12052;53.478;10.182;2022-10-16T11:16:26;3.30;;;1.00;;
23743;SDS011;12052;53.478;10.182;2022-10-16T11:19:10;2.80;;;1.13;;
23743;SDS011;12052;53.478;10.182;2022-10-16T11:21:42;6.22;;;1.00;;
23743;SDS011;12052;53.478;10.182;2022-10-16T11:24:18;4.68;;;0.68;;
23743;SDS011;12052;53.478;10.182;2022-10-16T11:26:48;3.45;;;0.93;;
23743;SDS011;12052;53.478;10.182;2022-10-16T11:29:19;3.42;;;0.80;;
23743;SDS011;12052;53.478;10.182;2022-10-16T11:31:51;4.68;;;0.85;;
23743;SDS011;12052;53.478;10.182;2022-10-16T11:34:40;5.88;;;0.98;;
23743;SDS011;12052;53.478;10.182;2022-10-16T11:37:14;3.08;;;0.75;;
23743;SDS011;12052;53.478;10.182;2022-10-16T11:39:45;1.95;;;0.57;;
23743;SDS011;12052;53.478;10.182;2022-10-16T11:42:22;2.92;;;0.57;;
23743;SDS011;12052;53.478;10.182;2022-10-16T11:45:23;4.47;;;0.63;;
23743;SDS011;12052;53.478;10.182;2022-10-16T11:48:23;2.35;;;0.80;;
23743;SDS011;12052;53.478;10.182;2022-10-16T11:50:54;2.80;;;0.80;;
23743;SDS011;12052;53.478;10.182;2022-10-16T11:55:59;1.52;;;0.77;;
23743;SDS011;12052;53.478;10.182;2022-10-16T12:03:42;5.32;;;0.75;;
23743;SDS011;12052;53.478;10.182;2022-10-16T12:08:55;5.15;;;0.70;;
23743;SDS011;12052;53.478;10.182;2022-10-16T12:13:51;1.50;;;0.70;;
23743;SDS011;12052;53.478;10.182;2022-10-16T12:16:28;3.88;;;1.00;;
23743;SDS011;12052;53.478;10.182;2022-10-16T12:19:11;3.35;;;0.73;;
23743;SDS011;12052;53.478;10.182;2022-10-16T12:21:41;5.38;;;0.75;;
23743;SDS011;12052;53.478;10.182;2022-10-16T12:24:19;2.88;;;0.90;;
23743;SDS011;12052;53.478;10.182;2022-10-16T12:26:55;3.58;;;0.82;;
23743;SDS011;12052;53.478;10.182;2022-10-16T12:29:23;2.92;;;0.85;;
23743;SDS011;12052;53.478;10.182;2022-10-16T12:31:51;1.83;;;0.88;;
23743;SDS011;12052;53.478;10.182;2022-10-16T12:34:21;2.00;;;0.80;;
23743;SDS011;12052;53.478;10.182;2022-10-16T12:36:53;1.88;;;0.80;;
23743;SDS011;12052;53.478;10.182;2022-10-16T12:39:21;3.05;;;0.77;;
23743;SDS011;12052;53.478;10.182;2022-10-16T12:41:59;6.03;;;0.80;;
23743;SDS011;12052;53.478;10.182;2022-10-16T12:44:27;3.15;;;0.70;;
23743;SDS011;12052;53.478;10.182;2022-10-16T12:47:00;2.65;;;0.73;;
23743;SDS011;12052;53.478;10.182;2022-10-16T12:49:36;3.35;;;0.77;;
23743;SDS011;12052;53.478;10.182;2022-10-16T12:52:22;4.30;;;1.00;;
23743;SDS011;12052;53.478;10.182;2022-10-16T12:54:51;1.00;;;0.60;;
23743;SDS011;12052;53.478;10.182;2022-10-16T12:57:33;1.75;;;0.80;;
23743;SDS011;12052;53.478;10.182;2022-10-16T13:00:31;3.97;;;0.65;;
23743;SDS011;12052;53.478;10.182;2022-10-16T13:03:22;3.17;;;0.65;;
23743;SDS011;12052;53.478;10.182;2022-10-16T13:06:08;1.70;;;0.88;;
23743;SDS011;12052;53.478;10.182;2022-10-16T13:17:03;3.97;;;0.70;;
23743;SDS011;12052;53.478;10.182;2022-10-16T13:28:22;6.03;;;0.82;;
23743;SDS011;12052;53.478;10.182;2022-10-16T13:30:54;1.98;;;0.70;;
23743;SDS011;12052;53.478;10.182;2022-10-16T13:33:26;3.90;;;1.02;;
23743;SDS011;12052;53.478;10.182;2022-10-16T13:35:56;3.20;;;0.77;;
23743;SDS011;12052;53.478;10.182;2022-10-16T13:38:23;2.38;;;0.90;;
23743;SDS011;12052;53.478;10.182;2022-10-16T13:40:55;4.38;;;1.23;;
23743;SDS011;12052;53.478;10.182;2022-10-16T13:46:04;3.58;;;0.85;;
23743;SDS011;12052;53.478;10.182;2022-10-16T13:48:31;4.72;;;1.00;;
23743;SDS011;12052;53.478;10.182;2022-10-16T13:51:02;1.30;;;0.55;;
23743;SDS011;12052;53.478;10.182;2022-10-16T13:53:29;2.90;;;0.63;;
23743;SDS011;12052;53.478;10.182;2022-10-16T13:55:56;3.50;;;0.90;;
23743;SDS011;12052;53.478;10.182;2022-10-16T13:58:22;3.33;;;0.82;;
23743;SDS011;12052;53.478;10.182;2022-10-16T14:03:49;1.77;;;0.70;;
23743;SDS011;12052;53.478;10.182;2022-10-16T14:06:16;2.75;;;1.08;;
23743;SDS011;12052;53.478;10.182;2022-10-16T14:08:59;1.80;;;0.77;;
23743;SDS011;12052;53.478;10.182;2022-10-16T14:11:28;4.97;;;0.88;;
23743;SDS011;12052;53.478;10.182;2022-10-16T14:13:54;5.57;;;0.85;;
23743;SDS011;12052;53.478;10.182;2022-10-16T14:16:24;2.53;;;0.90;;
23743;SDS011;12052;53.478;10.182;2022-10-16T14:18:57;2.75;;;0.90;;
23743;SDS011;12052;53.478;10.182;2022-10-16T14:21:27;2.88;;;0.90;;
23743;SDS011;12052;53.478;10.182;2022-10-16T14:23:53;4.32;;;1.00;;
23743;SDS011;12052;53.478;10.182;2022-10-16T14:26:21;2.75;;;0.98;;
23743;SDS011;12052;53.478;10.182;2022-10-16T14:28:49;5.93;;;0.80;;
23743;SDS011;12052;53.478;10.182;2022-10-16T14:33:56;6.10;;;0.90;;
23743;SDS011;12052;53.478;10.182;2022-10-16T14:36:22;5.18;;;1.30;;
23743;SDS011;12052;53.478;10.182;2022-10-16T14:41:29;3.08;;;0.93;;
23743;SDS011;12052;53.478;10.182;2022-10-16T14:43:56;4.72;;;0.77;;
23743;SDS011;12052;53.478;10.182;2022-10-16T14:46:28;4.93;;;0.88;;
23743;SDS011;12052;53.478;10.182;2022-10-16T14:49:17;1.20;;;0.55;;
23743;SDS011;12052;53.478;10.182;2022-10-16T14:51:47;5.20;;;1.13;;
23743;SDS011;12052;53.478;10.182;2022-10-16T14:54:13;6.85;;;1.00;;
23743;SDS011;12052;53.478;10.182;2022-10-16T14:56:56;6.60;;;1.35;;
23743;SDS011;12052;53.478;10.182;2022-10-16T14:59:39;3.25;;;1.60;;
23743;SDS011;12052;53.478;10.182;2022-10-16T15:04:47;2.92;;;0.70;;
23743;SDS011;12052;53.478;10.182;2022-10-16T15:07:13;3.58;;;1.40;;
23743;SDS011;12052;53.478;10.182;2022-10-16T15:09:39;3.03;;;1.10;;
23743;SDS011;12052;53.478;10.182;2022-10-16T15:12:04;2.08;;;1.00;;
23743;SDS011;12052;53.478;10.182;2022-10-16T15:14:30;8.13;;;1.20;;
23743;SDS011;12052;53.478;10.182;2022-10-16T15:16:55;8.60;;;1.25;;
23743;SDS011;12052;53.478;10.182;2022-10-16T15:19:21;5.32;;;0.90;;
23743;SDS011;12052;53.478;10.182;2022-10-16T15:21:46;4.85;;;1.20;;
23743;SDS011;12052;53.478;10.182;2022-10-16T15:24:13;4.25;;;1.05;;
23743;SDS011;12052;53.478;10.182;2022-10-16T15:26:39;2.13;;;1.25;;
23743;SDS011;12052;53.478;10.182;2022-10-16T15:29:05;8.98;;;1.35;;
23743;SDS011;12052;53.478;10.182;2022-10-16T15:31:31;2.28;;;0.88;;
23743;SDS011;12052;53.478;10.182;2022-10-16T15:33:57;2.30;;;0.80;;
23743;SDS011;12052;53.478;10.182;2022-10-16T15:36:32;4.25;;;1.20;;
23743;SDS011;12052;53.478;10.182;2022-10-16T15:39:01;8.57;;;0.90;;
23743;SDS011;12052;53.478;10.182;2022-10-16T15:41:31;4.05;;;0.90;;
23743;SDS011;12052;53.478;10.182;2022-10-16T15:43:56;3.13;;;0.80;;
23743;SDS011;12052;53.478;10.182;2022-10-16T15:46:23;2.22;;;0.70;;
23743;SDS011;12052;53.478;10.182;2022-10-16T15:48:49;6.82;;;0.98;;
23743;SDS011;12052;53.478;10.182;2022-10-16T15:51:16;4.78;;;0.90;;
23743;SDS011;12052;53.478;10.182;2022-10-16T15:53:43;3.03;;;1.10;;
23743;SDS011;12052;53.478;10.182;2022-10-16T15:56:11;5.65;;;1.48;;
23743;SDS011;12052;53.478;10.182;2022-10-16T15:58:37;3.97;;;1.00;;
23743;SDS011;12052;53.478;10.182;2022-10-16T16:01:03;14.30;;;1.65;;
23743;SDS011;12052;53.478;10.182;2022-10-16T16:03:29;7.50;;;1.13;;
23743;SDS011;12052;53.478;10.182;2022-10-16T16:05:55;2.58;;;1.00;;
23743;SDS011;12052;53.478;10.182;2022-10-16T16:08:21;4.32;;;1.08;;
23743;SDS011;12052;53.478;10.182;2022-10-16T16:10:59;8.15;;;1.40;;
23743;SDS011;12052;53.478;10.182;2022-10-16T16:13:27;4.25;;;1.38;;
23743;SDS011;12052;53.478;10.182;2022-10-16T16:15:52;4.70;;;1.50;;
23743;SDS011;12052;53.478;10.182;2022-10-16T16:18:18;8.57;;;2.15;;
23743;SDS011;12052;53.478;10.182;2022-10-16T16:20:44;6.63;;;1.80;;
23743;SDS011;12052;53.478;10.182;2022-10-16T16:23:09;8.35;;;2.38;;
23743;SDS011;12052;53.478;10.182;2022-10-16T16:25:35;8.95;;;2.80;;
23743;SDS011;12052;53.478;10.182;2022-10-16T16:28:01;6.80;;;3.00;;
23743;SDS011;12052;53.478;10.182;2022-10-16T16:30:26;11.18;;;3.22;;
23743;SDS011;12052;53.478;10.182;2022-10-16T16:32:52;5.93;;;2.30;;
23743;SDS011;12052;53.478;10.182;2022-10-16T16:35:17;9.50;;;2.25;;
23743;SDS011;12052;53.478;10.182;2022-10-16T16:37:43;3.80;;;1.60;;